sensor_id;sensor_type;location;lat;lon;timestamp;pressure;altitude;pressure_sealevel;temperature;humidity
63691;BME280;49837;57.280;27.070;2024-02-16T00:00:20;101207.11;;;-1.78;100.0
63691;BME280;49837;57.280;27.070;2024-02-16T00:01:20;101201.63;;;-1.77;100.0
63691;BME280;49837;57.280;27.070;2024-02-16T00:02:20;101201.35;;;-1.81;100.0
63691;BME280;49837;57.280;27.070;2024-02-16T00:03:21;101203.02;;;-1.78;100.0
63691;BME280;49837;57.280;27.070;2024-02-16T00:04:21;101202.34;;;-1.87;100.0
63691;BME280;49837;57.280;27.070;2024-02-16T00:05:21;101201.04;;;-1.89;100.0
63691;BME280;49837;57.280;27.070;2024-02-16T00:06:22;101203.77;;;-1.84;100.0
63691;BME280;49837;57.280;27.070;2024-02-16T00:07:22;101204.05;;;-1.83;100.0
63691;BME280;49837;57.280;27.070;2024-02-16T00:08:22;101201.11;;;-1.83;100.0
63691;BME280;49837;57.280;27.070;2024-02-16T00:09:23;101196.53;;;-1.83;100.0
63691;BME280;49837;57.280;27.070;2024-02-16T00:10:23;101196.66;;;-1.86;100.0
63691;BME280;49837;57.280;27.070;2024-02-16T00:11:23;101198.42;;;-1.91;100.0
63691;BME280;49837;57.280;27.070;2024-02-16T00:12:24;101193.14;;;-1.89;100.0
63691;BME280;49837;57.280;27.070;2024-02-16T00:13:24;101189.1;;;-1.89;100.0
63691;BME280;49837;57.280;27.070;2024-02-16T00:14:25;101192.69;;;-1.88;100.0
63691;BME280;49837;57.280;27.070;2024-02-16T00:15:25;101189.45;;;-1.84;100.0
63691;BME280;49837;57.280;27.070;2024-02-16T00:16:25;101186.89;;;-1.84;100.0
63691;BME280;49837;57.280;27.070;2024-02-16T00:17:25;101185.25;;;-1.84;100.0
63691;BME280;49837;57.280;27.070;2024-02-16T00:18:26;101179.7;;;-1.84;100.0
63691;BME280;49837;57.280;27.070;2024-02-16T00:19:26;101178.88;;;-1.9;100.0
63691;BME280;49837;57.280;27.070;2024-02-16T00:20:26;101180.76;;;-1.87;100.0
63691;BME280;49837;57.280;27.070;2024-02-16T00:21:27;101170.65;;;-1.81;100.0
63691;BME280;49837;57.280;27.070;2024-02-16T00:22:27;101176.62;;;-1.82;100.0
63691;BME280;49837;57.280;27.070;2024-02-16T00:23:27;101173.63;;;-1.83;100.0
63691;BME280;49837;57.280;27.070;2024-02-16T00:24:28;101170.05;;;-1.87;100.0
63691;BME280;49837;57.280;27.070;2024-02-16T00:25:28;101170.22;;;-1.91;100.0
63691;BME280;49837;57.280;27.070;2024-02-16T00:26:28;101170.52;;;-1.94;100.0
63691;BME280;49837;57.280;27.070;2024-02-16T00:27:29;101167.77;;;-1.95;100.0
63691;BME280;49837;57.280;27.070;2024-02-16T00:28:29;101172.51;;;-1.94;100.0
63691;BME280;49837;57.280;27.070;2024-02-16T00:29:29;101172.95;;;-1.92;100.0
63691;BME280;49837;57.280;27.070;2024-02-16T00:30:29;101168.05;;;-1.92;100.0
63691;BME280;49837;57.280;27.070;2024-02-16T00:31:30;101167.86;;;-1.95;100.0
63691;BME280;49837;57.280;27.070;2024-02-16T00:32:30;101165.34;;;-1.9;100.0
63691;BME280;49837;57.280;27.070;2024-02-16T00:33:31;101159.46;;;-1.9;100.0
63691;BME280;49837;57.280;27.070;2024-02-16T00:34:31;101161.67;;;-1.9;100.0
63691;BME280;49837;57.280;27.070;2024-02-16T00:35:31;101164.5;;;-1.93;100.0
63691;BME280;49837;57.280;27.070;2024-02-16T00:36:32;101162.78;;;-1.94;100.0
63691;BME280;49837;57.280;27.070;2024-02-16T00:37:32;101158.74;;;-1.96;100.0
63691;BME280;49837;57.280;27.070;2024-02-16T00:38:32;101165.53;;;-1.96;100.0
63691;BME280;49837;57.280;27.070;2024-02-16T00:39:33;101166.59;;;-1.94;100.0
63691;BME280;49837;57.280;27.070;2024-02-16T00:40:33;101170.06;;;-1.95;100.0
63691;BME280;49837;57.280;27.070;2024-02-16T00:41:33;101165.65;;;-1.98;100.0
63691;BME280;49837;57.280;27.070;2024-02-16T00:42:34;101161.52;;;-1.99;100.0
63691;BME280;49837;57.280;27.070;2024-02-16T00:43:34;101165.02;;;-1.9;100.0
63691;BME280;49837;57.280;27.070;2024-02-16T00:44:35;101160.31;;;-1.89;100.0
63691;BME280;49837;57.280;27.070;2024-02-16T00:45:35;101163.79;;;-1.86;100.0
63691;BME280;49837;57.280;27.070;2024-02-16T00:46:37;101164.05;;;-1.96;100.0
63691;BME280;49837;57.280;27.070;2024-02-16T00:47:35;101163.35;;;-1.94;100.0
63691;BME280;49837;57.280;27.070;2024-02-16T00:48:36;101157.27;;;-1.92;100.0
63691;BME280;49837;57.280;27.070;2024-02-16T00:49:36;101162.42;;;-1.96;100.0
63691;BME280;49837;57.280;27.070;2024-02-16T00:50:36;101157.67;;;-1.99;100.0
63691;BME280;49837;57.280;27.070;2024-02-16T00:51:37;101157.47;;;-1.98;100.0
63691;BME280;49837;57.280;27.070;2024-02-16T00:52:37;101160.89;;;-1.94;100.0
63691;BME280;49837;57.280;27.070;2024-02-16T00:53:37;101157.86;;;-1.89;100.0
63691;BME280;49837;57.280;27.070;2024-02-16T00:54:38;101154.02;;;-1.9;100.0
63691;BME280;49837;57.280;27.070;2024-02-16T00:55:38;101156.37;;;-1.94;100.0
63691;BME280;49837;57.280;27.070;2024-02-16T00:56:38;101157.72;;;-1.97;100.0
63691;BME280;49837;57.280;27.070;2024-02-16T00:57:39;101150.72;;;-1.94;100.0
63691;BME280;49837;57.280;27.070;2024-02-16T00:58:42;101157.02;;;-1.95;100.0
63691;BME280;49837;57.280;27.070;2024-02-16T00:59:40;101151.74;;;-1.93;100.0
63691;BME280;49837;57.280;27.070;2024-02-16T01:00:40;101155.22;;;-1.96;100.0
63691;BME280;49837;57.280;27.070;2024-02-16T01:01:40;101153.77;;;-2.03;100.0
63691;BME280;49837;57.280;27.070;2024-02-16T01:02:41;101149.59;;;-2.05;100.0
63691;BME280;49837;57.280;27.070;2024-02-16T01:03:41;101149.22;;;-2.02;100.0
63691;BME280;49837;57.280;27.070;2024-02-16T01:04:41;101147.27;;;-2.02;100.0
63691;BME280;49837;57.280;27.070;2024-02-16T01:05:41;101146.93;;;-2.02;100.0
63691;BME280;49837;57.280;27.070;2024-02-16T01:06:42;101144.98;;;-2.04;100.0
63691;BME280;49837;57.280;27.070;2024-02-16T01:07:42;101146.16;;;-2.03;100.0
63691;BME280;49837;57.280;27.070;2024-02-16T01:08:43;101145.75;;;-2.01;100.0
63691;BME280;49837;57.280;27.070;2024-02-16T01:09:43;101149.14;;;-2.0;100.0
63691;BME280;49837;57.280;27.070;2024-02-16T01:10:43;101143.91;;;-2.02;100.0
63691;BME280;49837;57.280;27.070;2024-02-16T01:11:43;101146.35;;;-1.96;100.0
63691;BME280;49837;57.280;27.070;2024-02-16T01:12:44;101151.09;;;-2.0;100.0
63691;BME280;49837;57.280;27.070;2024-02-16T01:13:45;101147.2;;;-1.94;100.0
63691;BME280;49837;57.280;27.070;2024-02-16T01:14:45;101144.14;;;-1.94;100.0
63691;BME280;49837;57.280;27.070;2024-02-16T01:15:45;101145.83;;;-1.98;100.0
63691;BME280;49837;57.280;27.070;2024-02-16T01:16:48;101144.39;;;-1.98;100.0
63691;BME280;49837;57.280;27.070;2024-02-16T01:17:45;101142.72;;;-2.01;100.0
63691;BME280;49837;57.280;27.070;2024-02-16T01:18:46;101145.12;;;-1.98;100.0
63691;BME280;49837;57.280;27.070;2024-02-16T01:19:46;101138.3;;;-1.98;100.0
63691;BME280;49837;57.280;27.070;2024-02-16T01:20:46;101140.59;;;-2.01;100.0
63691;BME280;49837;57.280;27.070;2024-02-16T01:21:47;101139.23;;;-1.95;100.0
63691;BME280;49837;57.280;27.070;2024-02-16T01:22:47;101136.45;;;-1.93;100.0
63691;BME280;49837;57.280;27.070;2024-02-16T01:23:47;101131.62;;;-1.91;100.0
63691;BME280;49837;57.280;27.070;2024-02-16T01:24:48;101131.59;;;-1.99;100.0
63691;BME280;49837;57.280;27.070;2024-02-16T01:25:48;101128.05;;;-2.02;100.0
63691;BME280;49837;57.280;27.070;2024-02-16T01:26:49;101125.14;;;-1.99;100.0
63691;BME280;49837;57.280;27.070;2024-02-16T01:27:49;101125.39;;;-2.01;100.0
63691;BME280;49837;57.280;27.070;2024-02-16T01:28:49;101124.0;;;-2.03;100.0
63691;BME280;49837;57.280;27.070;2024-02-16T01:29:49;101116.2;;;-2.02;100.0
63691;BME280;49837;57.280;27.070;2024-02-16T01:30:50;101121.06;;;-2.03;100.0
63691;BME280;49837;57.280;27.070;2024-02-16T01:31:50;101121.47;;;-1.98;100.0
63691;BME280;49837;57.280;27.070;2024-02-16T01:32:51;101122.91;;;-1.91;100.0
63691;BME280;49837;57.280;27.070;2024-02-16T01:33:51;101121.16;;;-1.94;100.0
63691;BME280;49837;57.280;27.070;2024-02-16T01:34:51;101120.77;;;-1.99;100.0
63691;BME280;49837;57.280;27.070;2024-02-16T01:35:51;101118.7;;;-2.05;100.0
63691;BME280;49837;57.280;27.070;2024-02-16T01:36:52;101125.07;;;-2.03;100.0
63691;BME280;49837;57.280;27.070;2024-02-16T01:37:52;101125.51;;;-1.97;100.0
63691;BME280;49837;57.280;27.070;2024-02-16T01:38:52;101122.1;;;-1.92;100.0
63691;BME280;49837;57.280;27.070;2024-02-16T01:39:53;101124.23;;;-1.94;100.0
63691;BME280;49837;57.280;27.070;2024-02-16T01:40:53;101121.12;;;-1.94;100.0
63691;BME280;49837;57.280;27.070;2024-02-16T01:41:53;101114.27;;;-1.97;100.0
63691;BME280;49837;57.280;27.070;2024-02-16T01:42:54;101117.86;;;-1.97;100.0
63691;BME280;49837;57.280;27.070;2024-02-16T01:43:54;101116.92;;;-2.0;100.0
63691;BME280;49837;57.280;27.070;2024-02-16T01:44:54;101115.62;;;-2.04;100.0
63691;BME280;49837;57.280;27.070;2024-02-16T01:45:55;101113.62;;;-2.05;100.0
63691;BME280;49837;57.280;27.070;2024-02-16T01:46:55;101115.58;;;-1.98;100.0
63691;BME280;49837;57.280;27.070;2024-02-16T01:47:56;101117.36;;;-1.94;100.0
63691;BME280;49837;57.280;27.070;2024-02-16T01:48:56;101112.05;;;-1.97;100.0
63691;BME280;49837;57.280;27.070;2024-02-16T01:49:56;101112.47;;;-2.01;100.0
63691;BME280;49837;57.280;27.070;2024-02-16T01:50:57;101112.32;;;-2.05;100.0
63691;BME280;49837;57.280;27.070;2024-02-16T01:51:57;101109.16;;;-2.02;100.0
63691;BME280;49837;57.280;27.070;2024-02-16T01:52:57;101111.11;;;-1.95;100.0
63691;BME280;49837;57.280;27.070;2024-02-16T01:53:57;101107.94;;;-2.02;100.0
63691;BME280;49837;57.280;27.070;2024-02-16T01:54:58;101105.12;;;-2.01;100.0
63691;BME280;49837;57.280;27.070;2024-02-16T01:55:58;101109.16;;;-1.99;100.0
63691;BME280;49837;57.280;27.070;2024-02-16T01:56:59;101109.78;;;-2.01;100.0
63691;BME280;49837;57.280;27.070;2024-02-16T01:57:59;101112.34;;;-1.95;100.0
63691;BME280;49837;57.280;27.070;2024-02-16T01:58:59;101112.3;;;-1.96;100.0
63691;BME280;49837;57.280;27.070;2024-02-16T01:59:59;101109.17;;;-2.04;100.0
63691;BME280;49837;57.280;27.070;2024-02-16T02:01:00;101114.52;;;-2.03;100.0
63691;BME280;49837;57.280;27.070;2024-02-16T02:02:00;101109.12;;;-2.03;100.0
63691;BME280;49837;57.280;27.070;2024-02-16T02:03:00;101110.78;;;-1.95;100.0
63691;BME280;49837;57.280;27.070;2024-02-16T02:04:01;101112.02;;;-1.97;100.0
63691;BME280;49837;57.280;27.070;2024-02-16T02:05:02;101112.78;;;-1.94;100.0
63691;BME280;49837;57.280;27.070;2024-02-16T02:06:02;101112.89;;;-1.89;100.0
63691;BME280;49837;57.280;27.070;2024-02-16T02:07:16;101112.61;;;-1.9;100.0
63691;BME280;49837;57.280;27.070;2024-02-16T02:08:10;101107.16;;;-1.87;100.0
63691;BME280;49837;57.280;27.070;2024-02-16T02:09:08;101108.16;;;-1.91;100.0
63691;BME280;49837;57.280;27.070;2024-02-16T02:10:09;101104.86;;;-1.99;100.0
63691;BME280;49837;57.280;27.070;2024-02-16T02:11:08;101106.67;;;-2.01;100.0
63691;BME280;49837;57.280;27.070;2024-02-16T02:12:09;101106.15;;;-2.04;100.0
63691;BME280;49837;57.280;27.070;2024-02-16T02:13:09;101104.23;;;-2.07;100.0
63691;BME280;49837;57.280;27.070;2024-02-16T02:14:09;101103.98;;;-2.03;100.0
63691;BME280;49837;57.280;27.070;2024-02-16T02:15:10;101101.8;;;-1.98;100.0
63691;BME280;49837;57.280;27.070;2024-02-16T02:16:10;101106.61;;;-1.94;100.0
63691;BME280;49837;57.280;27.070;2024-02-16T02:17:10;101108.15;;;-2.03;100.0
63691;BME280;49837;57.280;27.070;2024-02-16T02:18:11;101104.89;;;-2.09;100.0
63691;BME280;49837;57.280;27.070;2024-02-16T02:19:11;101105.45;;;-2.05;100.0
63691;BME280;49837;57.280;27.070;2024-02-16T02:20:11;101111.98;;;-1.99;100.0
63691;BME280;49837;57.280;27.070;2024-02-16T02:21:12;101106.25;;;-1.99;100.0
63691;BME280;49837;57.280;27.070;2024-02-16T02:22:21;101109.33;;;-2.02;100.0
63691;BME280;49837;57.280;27.070;2024-02-16T02:23:13;101110.34;;;-1.99;100.0
63691;BME280;49837;57.280;27.070;2024-02-16T02:24:14;101112.79;;;-1.97;100.0
63691;BME280;49837;57.280;27.070;2024-02-16T02:25:14;101111.41;;;-2.01;100.0
63691;BME280;49837;57.280;27.070;2024-02-16T02:26:15;101110.31;;;-2.02;100.0
63691;BME280;49837;57.280;27.070;2024-02-16T02:27:15;101114.39;;;-1.98;100.0
63691;BME280;49837;57.280;27.070;2024-02-16T02:28:15;101114.8;;;-1.98;100.0
63691;BME280;49837;57.280;27.070;2024-02-16T02:29:15;101113.71;;;-2.05;100.0
63691;BME280;49837;57.280;27.070;2024-02-16T02:30:16;101113.74;;;-2.02;100.0
63691;BME280;49837;57.280;27.070;2024-02-16T02:31:16;101112.47;;;-2.01;100.0
63691;BME280;49837;57.280;27.070;2024-02-16T02:32:16;101113.98;;;-2.04;100.0
63691;BME280;49837;57.280;27.070;2024-02-16T02:33:17;101114.64;;;-2.02;100.0
63691;BME280;49837;57.280;27.070;2024-02-16T02:34:17;101116.24;;;-2.03;100.0
63691;BME280;49837;57.280;27.070;2024-02-16T02:35:18;101115.61;;;-1.98;100.0
63691;BME280;49837;57.280;27.070;2024-02-16T02:36:18;101120.16;;;-1.98;100.0
63691;BME280;49837;57.280;27.070;2024-02-16T02:37:18;101119.3;;;-2.02;100.0
63691;BME280;49837;57.280;27.070;2024-02-16T02:38:18;101117.16;;;-1.98;100.0
63691;BME280;49837;57.280;27.070;2024-02-16T02:39:19;101115.25;;;-1.99;100.0
63691;BME280;49837;57.280;27.070;2024-02-16T02:40:19;101118.94;;;-2.05;100.0
63691;BME280;49837;57.280;27.070;2024-02-16T02:41:19;101115.75;;;-2.03;100.0
63691;BME280;49837;57.280;27.070;2024-02-16T02:42:20;101111.95;;;-2.06;100.0
63691;BME280;49837;57.280;27.070;2024-02-16T02:43:20;101111.48;;;-1.99;100.0
63691;BME280;49837;57.280;27.070;2024-02-16T02:44:20;101108.45;;;-1.99;100.0
63691;BME280;49837;57.280;27.070;2024-02-16T02:45:21;101114.72;;;-1.98;100.0
63691;BME280;49837;57.280;27.070;2024-02-16T02:46:22;101109.08;;;-2.0;100.0
63691;BME280;49837;57.280;27.070;2024-02-16T02:47:21;101117.25;;;-2.0;100.0
63691;BME280;49837;57.280;27.070;2024-02-16T02:48:22;101113.44;;;-1.94;100.0
63691;BME280;49837;57.280;27.070;2024-02-16T02:49:22;101113.97;;;-1.96;100.0
63691;BME280;49837;57.280;27.070;2024-02-16T02:50:22;101116.59;;;-1.97;100.0
63691;BME280;49837;57.280;27.070;2024-02-16T02:51:22;101117.66;;;-2.02;100.0
63691;BME280;49837;57.280;27.070;2024-02-16T02:52:23;101115.21;;;-2.02;100.0
63691;BME280;49837;57.280;27.070;2024-02-16T02:53:23;101112.92;;;-2.02;100.0
63691;BME280;49837;57.280;27.070;2024-02-16T02:54:23;101112.34;;;-2.0;100.0
63691;BME280;49837;57.280;27.070;2024-02-16T02:55:24;101112.15;;;-2.01;100.0
63691;BME280;49837;57.280;27.070;2024-02-16T02:56:24;101110.09;;;-1.99;100.0
63691;BME280;49837;57.280;27.070;2024-02-16T02:57:24;101111.6;;;-1.98;100.0
63691;BME280;49837;57.280;27.070;2024-02-16T02:58:25;101110.56;;;-2.04;100.0
63691;BME280;49837;57.280;27.070;2024-02-16T02:59:25;101107.13;;;-2.06;100.0
63691;BME280;49837;57.280;27.070;2024-02-16T03:00:25;101105.16;;;-2.0;100.0
63691;BME280;49837;57.280;27.070;2024-02-16T03:01:26;101105.93;;;-2.01;100.0
63691;BME280;49837;57.280;27.070;2024-02-16T03:02:26;101106.19;;;-2.03;100.0
63691;BME280;49837;57.280;27.070;2024-02-16T03:03:26;101110.59;;;-1.99;100.0
63691;BME280;49837;57.280;27.070;2024-02-16T03:04:27;101107.81;;;-1.99;100.0
63691;BME280;49837;57.280;27.070;2024-02-16T03:05:27;101109.19;;;-1.92;100.0
63691;BME280;49837;57.280;27.070;2024-02-16T03:06:27;101105.19;;;-1.99;100.0
63691;BME280;49837;57.280;27.070;2024-02-16T03:07:28;101108.39;;;-2.03;100.0
63691;BME280;49837;57.280;27.070;2024-02-16T03:08:28;101105.53;;;-2.03;100.0
63691;BME280;49837;57.280;27.070;2024-02-16T03:09:28;101109.54;;;-2.03;100.0
63691;BME280;49837;57.280;27.070;2024-02-16T03:10:29;101106.34;;;-2.03;100.0
63691;BME280;49837;57.280;27.070;2024-02-16T03:11:29;101107.2;;;-1.99;100.0
63691;BME280;49837;57.280;27.070;2024-02-16T03:12:29;101106.44;;;-2.07;100.0
63691;BME280;49837;57.280;27.070;2024-02-16T03:13:31;101106.41;;;-2.1;100.0
63691;BME280;49837;57.280;27.070;2024-02-16T03:14:30;101103.41;;;-2.05;100.0
63691;BME280;49837;57.280;27.070;2024-02-16T03:15:31;101103.07;;;-2.01;100.0
63691;BME280;49837;57.280;27.070;2024-02-16T03:16:31;101106.55;;;-1.99;100.0
63691;BME280;49837;57.280;27.070;2024-02-16T03:17:31;101108.66;;;-1.96;100.0
63691;BME280;49837;57.280;27.070;2024-02-16T03:18:32;101106.26;;;-1.98;100.0
63691;BME280;49837;57.280;27.070;2024-02-16T03:19:32;101106.62;;;-1.97;100.0
63691;BME280;49837;57.280;27.070;2024-02-16T03:20:32;101109.86;;;-2.03;100.0
63691;BME280;49837;57.280;27.070;2024-02-16T03:21:32;101111.12;;;-1.98;100.0
63691;BME280;49837;57.280;27.070;2024-02-16T03:22:33;101110.69;;;-2.05;100.0
63691;BME280;49837;57.280;27.070;2024-02-16T03:23:33;101110.48;;;-2.06;100.0
63691;BME280;49837;57.280;27.070;2024-02-16T03:24:33;101110.64;;;-2.04;100.0
63691;BME280;49837;57.280;27.070;2024-02-16T03:25:34;101109.04;;;-2.01;100.0
63691;BME280;49837;57.280;27.070;2024-02-16T03:26:34;101109.93;;;-1.96;100.0
63691;BME280;49837;57.280;27.070;2024-02-16T03:27:34;101111.61;;;-2.02;100.0
63691;BME280;49837;57.280;27.070;2024-02-16T03:28:35;101112.34;;;-2.0;100.0
63691;BME280;49837;57.280;27.070;2024-02-16T03:29:35;101113.16;;;-1.98;100.0
63691;BME280;49837;57.280;27.070;2024-02-16T03:30:35;101117.3;;;-2.01;100.0
63691;BME280;49837;57.280;27.070;2024-02-16T03:31:36;101116.32;;;-2.01;100.0
63691;BME280;49837;57.280;27.070;2024-02-16T03:32:36;101108.16;;;-2.12;100.0
63691;BME280;49837;57.280;27.070;2024-02-16T03:33:36;101114.11;;;-2.03;100.0
63691;BME280;49837;57.280;27.070;2024-02-16T03:34:37;101108.39;;;-2.03;100.0
63691;BME280;49837;57.280;27.070;2024-02-16T03:35:37;101105.12;;;-2.01;100.0
63691;BME280;49837;57.280;27.070;2024-02-16T03:36:37;101104.22;;;-2.03;100.0
63691;BME280;49837;57.280;27.070;2024-02-16T03:37:38;101102.92;;;-2.05;100.0
63691;BME280;49837;57.280;27.070;2024-02-16T03:38:40;101105.99;;;-2.06;100.0
63691;BME280;49837;57.280;27.070;2024-02-16T03:39:38;101105.01;;;-2.06;100.0
63691;BME280;49837;57.280;27.070;2024-02-16T03:40:39;101106.59;;;-2.05;100.0
63691;BME280;49837;57.280;27.070;2024-02-16T03:41:39;101105.89;;;-2.02;100.0
63691;BME280;49837;57.280;27.070;2024-02-16T03:42:39;101104.09;;;-1.99;100.0
63691;BME280;49837;57.280;27.070;2024-02-16T03:43:40;101103.52;;;-1.95;100.0
63691;BME280;49837;57.280;27.070;2024-02-16T03:44:40;101102.33;;;-1.96;100.0
63691;BME280;49837;57.280;27.070;2024-02-16T03:45:40;101101.9;;;-2.06;100.0
63691;BME280;49837;57.280;27.070;2024-02-16T03:46:41;101102.14;;;-2.04;100.0
63691;BME280;49837;57.280;27.070;2024-02-16T03:47:41;101099.44;;;-2.04;100.0
63691;BME280;49837;57.280;27.070;2024-02-16T03:48:41;101096.59;;;-2.09;100.0
63691;BME280;49837;57.280;27.070;2024-02-16T03:49:42;101093.6;;;-2.05;100.0
63691;BME280;49837;57.280;27.070;2024-02-16T03:50:42;101094.86;;;-2.04;100.0
63691;BME280;49837;57.280;27.070;2024-02-16T03:51:42;101096.25;;;-1.99;100.0
63691;BME280;49837;57.280;27.070;2024-02-16T03:52:43;101093.8;;;-1.99;100.0
63691;BME280;49837;57.280;27.070;2024-02-16T03:53:43;101095.3;;;-1.96;100.0
63691;BME280;49837;57.280;27.070;2024-02-16T03:54:43;101095.3;;;-2.01;100.0
63691;BME280;49837;57.280;27.070;2024-02-16T03:55:44;101093.27;;;-2.03;100.0
63691;BME280;49837;57.280;27.070;2024-02-16T03:56:44;101088.73;;;-2.09;100.0
63691;BME280;49837;57.280;27.070;2024-02-16T03:57:44;101092.7;;;-2.05;100.0
63691;BME280;49837;57.280;27.070;2024-02-16T03:58:45;101093.5;;;-1.99;100.0
63691;BME280;49837;57.280;27.070;2024-02-16T03:59:45;101091.17;;;-2.0;100.0
63691;BME280;49837;57.280;27.070;2024-02-16T04:00:45;101096.89;;;-1.95;100.0
63691;BME280;49837;57.280;27.070;2024-02-16T04:01:46;101092.8;;;-1.98;100.0
63691;BME280;49837;57.280;27.070;2024-02-16T04:02:46;101095.02;;;-2.0;100.0
63691;BME280;49837;57.280;27.070;2024-02-16T04:03:46;101092.73;;;-2.0;100.0
63691;BME280;49837;57.280;27.070;2024-02-16T04:04:47;101088.62;;;-1.96;100.0
63691;BME280;49837;57.280;27.070;2024-02-16T04:05:47;101084.28;;;-2.05;100.0
63691;BME280;49837;57.280;27.070;2024-02-16T04:06:47;101089.8;;;-2.01;100.0
63691;BME280;49837;57.280;27.070;2024-02-16T04:07:48;101091.51;;;-2.02;100.0
63691;BME280;49837;57.280;27.070;2024-02-16T04:08:48;101090.17;;;-2.05;100.0
63691;BME280;49837;57.280;27.070;2024-02-16T04:09:48;101091.77;;;-2.08;100.0
63691;BME280;49837;57.280;27.070;2024-02-16T04:10:49;101089.36;;;-2.1;100.0
63691;BME280;49837;57.280;27.070;2024-02-16T04:11:49;101093.28;;;-2.07;100.0
63691;BME280;49837;57.280;27.070;2024-02-16T04:12:49;101090.36;;;-2.02;100.0
63691;BME280;49837;57.280;27.070;2024-02-16T04:13:50;101092.33;;;-2.04;100.0
63691;BME280;49837;57.280;27.070;2024-02-16T04:14:50;101095.6;;;-2.04;100.0
63691;BME280;49837;57.280;27.070;2024-02-16T04:15:51;101094.78;;;-2.04;100.0
63691;BME280;49837;57.280;27.070;2024-02-16T04:16:51;101090.91;;;-2.09;100.0
63691;BME280;49837;57.280;27.070;2024-02-16T04:17:52;101090.05;;;-2.06;100.0
63691;BME280;49837;57.280;27.070;2024-02-16T04:18:52;101092.12;;;-2.05;100.0
63691;BME280;49837;57.280;27.070;2024-02-16T04:19:53;101086.66;;;-2.07;100.0
63691;BME280;49837;57.280;27.070;2024-02-16T04:20:53;101089.19;;;-2.07;100.0
63691;BME280;49837;57.280;27.070;2024-02-16T04:21:53;101086.41;;;-2.05;100.0
63691;BME280;49837;57.280;27.070;2024-02-16T04:22:54;101085.52;;;-2.07;100.0
63691;BME280;49837;57.280;27.070;2024-02-16T04:23:54;101086.41;;;-2.07;100.0
63691;BME280;49837;57.280;27.070;2024-02-16T04:24:55;101085.72;;;-2.09;100.0
63691;BME280;49837;57.280;27.070;2024-02-16T04:25:56;101082.77;;;-2.06;100.0
63691;BME280;49837;57.280;27.070;2024-02-16T04:26:55;101087.22;;;-2.05;100.0
63691;BME280;49837;57.280;27.070;2024-02-16T04:27:56;101081.42;;;-2.07;100.0
63691;BME280;49837;57.280;27.070;2024-02-16T04:28:56;101072.61;;;-2.12;100.0
63691;BME280;49837;57.280;27.070;2024-02-16T04:29:56;101073.71;;;-2.13;100.0
63691;BME280;49837;57.280;27.070;2024-02-16T04:30:57;101074.31;;;-2.07;100.0
63691;BME280;49837;57.280;27.070;2024-02-16T04:31:57;101069.05;;;-2.11;100.0
63691;BME280;49837;57.280;27.070;2024-02-16T04:32:57;101069.55;;;-2.12;100.0
63691;BME280;49837;57.280;27.070;2024-02-16T04:33:58;101074.17;;;-2.16;100.0
63691;BME280;49837;57.280;27.070;2024-02-16T04:34:58;101079.12;;;-2.14;100.0
63691;BME280;49837;57.280;27.070;2024-02-16T04:35:58;101074.25;;;-2.14;100.0
63691;BME280;49837;57.280;27.070;2024-02-16T04:36:59;101080.91;;;-2.15;100.0
63691;BME280;49837;57.280;27.070;2024-02-16T04:37:59;101078.11;;;-2.09;100.0
63691;BME280;49837;57.280;27.070;2024-02-16T04:38:59;101069.59;;;-2.13;100.0
63691;BME280;49837;57.280;27.070;2024-02-16T04:40:00;101069.5;;;-2.11;100.0
63691;BME280;49837;57.280;27.070;2024-02-16T04:41:00;101071.8;;;-2.16;100.0
63691;BME280;49837;57.280;27.070;2024-02-16T04:42:00;101071.59;;;-2.14;100.0
63691;BME280;49837;57.280;27.070;2024-02-16T04:43:01;101073.14;;;-2.1;100.0
63691;BME280;49837;57.280;27.070;2024-02-16T04:44:01;101070.86;;;-2.12;100.0
63691;BME280;49837;57.280;27.070;2024-02-16T04:45:02;101075.32;;;-2.15;100.0
63691;BME280;49837;57.280;27.070;2024-02-16T04:46:03;101074.91;;;-2.14;100.0
63691;BME280;49837;57.280;27.070;2024-02-16T04:47:03;101070.98;;;-2.13;100.0
63691;BME280;49837;57.280;27.070;2024-02-16T04:48:04;101071.27;;;-2.14;100.0
63691;BME280;49837;57.280;27.070;2024-02-16T04:49:03;101069.11;;;-2.18;100.0
63691;BME280;49837;57.280;27.070;2024-02-16T04:50:05;101067.42;;;-2.15;100.0
63691;BME280;49837;57.280;27.070;2024-02-16T04:51:04;101067.98;;;-2.1;100.0
63691;BME280;49837;57.280;27.070;2024-02-16T04:52:05;101070.47;;;-2.05;100.0
63691;BME280;49837;57.280;27.070;2024-02-16T04:53:05;101072.52;;;-2.1;100.0
63691;BME280;49837;57.280;27.070;2024-02-16T04:54:05;101073.06;;;-2.13;100.0
63691;BME280;49837;57.280;27.070;2024-02-16T04:55:06;101069.51;;;-2.13;100.0
63691;BME280;49837;57.280;27.070;2024-02-16T04:56:06;101069.42;;;-2.11;100.0
63691;BME280;49837;57.280;27.070;2024-02-16T04:57:06;101064.62;;;-2.09;100.0
63691;BME280;49837;57.280;27.070;2024-02-16T04:58:06;101059.2;;;-2.12;100.0
63691;BME280;49837;57.280;27.070;2024-02-16T04:59:07;101056.91;;;-2.12;100.0
63691;BME280;49837;57.280;27.070;2024-02-16T05:00:08;101056.44;;;-2.04;100.0
63691;BME280;49837;57.280;27.070;2024-02-16T05:01:08;101063.98;;;-2.08;100.0
63691;BME280;49837;57.280;27.070;2024-02-16T05:02:08;101062.16;;;-2.02;100.0
63691;BME280;49837;57.280;27.070;2024-02-16T05:03:08;101059.69;;;-2.07;100.0
63691;BME280;49837;57.280;27.070;2024-02-16T05:04:08;101061.7;;;-2.15;100.0
63691;BME280;49837;57.280;27.070;2024-02-16T05:05:09;101051.38;;;-2.16;100.0
63691;BME280;49837;57.280;27.070;2024-02-16T05:06:09;101050.64;;;-2.18;100.0
63691;BME280;49837;57.280;27.070;2024-02-16T05:07:09;101054.6;;;-2.17;100.0
63691;BME280;49837;57.280;27.070;2024-02-16T05:08:10;101059.99;;;-2.14;100.0
63691;BME280;49837;57.280;27.070;2024-02-16T05:09:10;101062.19;;;-2.15;100.0
63691;BME280;49837;57.280;27.070;2024-02-16T05:10:10;101058.48;;;-2.18;100.0
63691;BME280;49837;57.280;27.070;2024-02-16T05:11:11;101062.09;;;-2.19;100.0
63691;BME280;49837;57.280;27.070;2024-02-16T05:12:11;101060.94;;;-2.18;100.0